sensor_id;sensor_type;location;lat;lon;timestamp;P1;durP1;ratioP1;P2;durP2;ratioP2
85291;SDS011;76128;47.194;14.662;2024-02-26T00:00:29;5.53;;;2.58;;
85291;SDS011;76128;47.194;14.662;2024-02-26T00:02:55;5.75;;;2.90;;
85291;SDS011;76128;47.194;14.662;2024-02-26T00:05:21;6.40;;;2.42;;
85291;SDS011;76128;47.194;14.662;2024-02-26T00:07:46;4.57;;;2.60;;
85291;SDS011;76128;47.194;14.662;2024-02-26T00:10:12;4.43;;;2.30;;
85291;SDS011;76128;47.194;14.662;2024-02-26T00:12:38;3.47;;;1.92;;
85291;SDS011;76128;47.194;14.662;2024-02-26T00:15:05;4.40;;;1.80;;
85291;SDS011;76128;47.194;14.662;2024-02-26T00:17:33;4.07;;;2.03;;
85291;SDS011;76128;47.194;14.662;2024-02-26T00:19:59;2.80;;;1.77;;
85291;SDS011;76128;47.194;14.662;2024-02-26T00:22:26;3.30;;;1.63;;
85291;SDS011;76128;47.194;14.662;2024-02-26T00:24:51;3.33;;;1.80;;
85291;SDS011;76128;47.194;14.662;2024-02-26T00:27:17;3.33;;;1.58;;
85291;SDS011;76128;47.194;14.662;2024-02-26T00:29:42;4.00;;;1.80;;
85291;SDS011;76128;47.194;14.662;2024-02-26T00:32:08;4.85;;;1.60;;
85291;SDS011;76128;47.194;14.662;2024-02-26T00:34:33;4.05;;;2.00;;
85291;SDS011;76128;47.194;14.662;2024-02-26T00:36:58;2.90;;;1.60;;
85291;SDS011;76128;47.194;14.662;2024-02-26T00:39:24;3.42;;;1.98;;
85291;SDS011;76128;47.194;14.662;2024-02-26T00:41:49;3.90;;;2.00;;
85291;SDS011;76128;47.194;14.662;2024-02-26T00:44:16;4.18;;;2.13;;
85291;SDS011;76128;47.194;14.662;2024-02-26T00:46:42;3.40;;;1.85;;
85291;SDS011;76128;47.194;14.662;2024-02-26T00:49:08;5.00;;;1.63;;
85291;SDS011;76128;47.194;14.662;2024-02-26T00:51:33;3.67;;;1.98;;
85291;SDS011;76128;47.194;14.662;2024-02-26T00:53:59;4.38;;;1.95;;
85291;SDS011;76128;47.194;14.662;2024-02-26T00:56:24;4.18;;;2.20;;
85291;SDS011;76128;47.194;14.662;2024-02-26T00:58:50;5.15;;;2.08;;
85291;SDS011;76128;47.194;14.662;2024-02-26T01:01:16;4.63;;;1.95;;
85291;SDS011;76128;47.194;14.662;2024-02-26T01:03:42;3.97;;;1.98;;
85291;SDS011;76128;47.194;14.662;2024-02-26T01:06:07;3.72;;;1.80;;
85291;SDS011;76128;47.194;14.662;2024-02-26T01:08:33;3.40;;;1.98;;
85291;SDS011;76128;47.194;14.662;2024-02-26T01:11:00;4.28;;;1.60;;
85291;SDS011;76128;47.194;14.662;2024-02-26T01:13:26;5.82;;;2.08;;
85291;SDS011;76128;47.194;14.662;2024-02-26T01:15:51;4.07;;;2.40;;
85291;SDS011;76128;47.194;14.662;2024-02-26T01:18:17;5.22;;;2.40;;
85291;SDS011;76128;47.194;14.662;2024-02-26T01:20:42;3.35;;;1.92;;
85291;SDS011;76128;47.194;14.662;2024-02-26T01:23:08;5.28;;;2.85;;
85291;SDS011;76128;47.194;14.662;2024-02-26T01:25:33;5.00;;;2.33;;
85291;SDS011;76128;47.194;14.662;2024-02-26T01:27:59;4.20;;;2.35;;
85291;SDS011;76128;47.194;14.662;2024-02-26T01:30:24;3.80;;;2.13;;
85291;SDS011;76128;47.194;14.662;2024-02-26T01:32:50;4.25;;;2.10;;
85291;SDS011;76128;47.194;14.662;2024-02-26T01:35:15;4.35;;;1.88;;
85291;SDS011;76128;47.194;14.662;2024-02-26T01:37:41;5.15;;;2.03;;
85291;SDS011;76128;47.194;14.662;2024-02-26T01:40:07;5.05;;;2.47;;
85291;SDS011;76128;47.194;14.662;2024-02-26T01:42:34;5.47;;;2.50;;
85291;SDS011;76128;47.194;14.662;2024-02-26T01:45:00;5.82;;;2.40;;
85291;SDS011;76128;47.194;14.662;2024-02-26T01:47:26;4.55;;;2.25;;
85291;SDS011;76128;47.194;14.662;2024-02-26T01:49:52;5.85;;;2.40;;
85291;SDS011;76128;47.194;14.662;2024-02-26T01:52:18;4.32;;;2.15;;
85291;SDS011;76128;47.194;14.662;2024-02-26T01:54:44;5.22;;;2.50;;
85291;SDS011;76128;47.194;14.662;2024-02-26T01:57:10;4.30;;;2.20;;
85291;SDS011;76128;47.194;14.662;2024-02-26T01:59:36;4.95;;;2.40;;
85291;SDS011;76128;47.194;14.662;2024-02-26T02:02:03;3.88;;;2.25;;
85291;SDS011;76128;47.194;14.662;2024-02-26T02:04:31;5.07;;;2.30;;
85291;SDS011;76128;47.194;14.662;2024-02-26T02:06:57;4.22;;;2.30;;
85291;SDS011;76128;47.194;14.662;2024-02-26T02:09:23;4.22;;;2.22;;
85291;SDS011;76128;47.194;14.662;2024-02-26T02:11:48;5.32;;;2.13;;
85291;SDS011;76128;47.194;14.662;2024-02-26T02:14:14;3.75;;;2.00;;
85291;SDS011;76128;47.194;14.662;2024-02-26T02:16:40;5.03;;;2.50;;
85291;SDS011;76128;47.194;14.662;2024-02-26T02:19:05;4.95;;;2.45;;
85291;SDS011;76128;47.194;14.662;2024-02-26T02:21:31;4.13;;;2.45;;
85291;SDS011;76128;47.194;14.662;2024-02-26T02:23:56;4.55;;;2.30;;
85291;SDS011;76128;47.194;14.662;2024-02-26T02:26:22;4.53;;;2.22;;
85291;SDS011;76128;47.194;14.662;2024-02-26T02:28:47;3.58;;;2.03;;
85291;SDS011;76128;47.194;14.662;2024-02-26T02:31:14;4.18;;;2.42;;
85291;SDS011;76128;47.194;14.662;2024-02-26T02:33:40;5.40;;;2.30;;
85291;SDS011;76128;47.194;14.662;2024-02-26T02:36:05;5.97;;;2.20;;
85291;SDS011;76128;47.194;14.662;2024-02-26T02:38:35;3.15;;;1.90;;
85291;SDS011;76128;47.194;14.662;2024-02-26T02:41:01;4.80;;;2.40;;
85291;SDS011;76128;47.194;14.662;2024-02-26T02:43:27;4.35;;;2.30;;
85291;SDS011;76128;47.194;14.662;2024-02-26T02:45:52;4.18;;;2.15;;
85291;SDS011;76128;47.194;14.662;2024-02-26T02:48:17;4.55;;;2.10;;
85291;SDS011;76128;47.194;14.662;2024-02-26T02:50:44;4.35;;;2.03;;
85291;SDS011;76128;47.194;14.662;2024-02-26T02:53:10;3.85;;;2.13;;
85291;SDS011;76128;47.194;14.662;2024-02-26T02:55:35;5.68;;;1.92;;
85291;SDS011;76128;47.194;14.662;2024-02-26T02:58:01;2.92;;;1.75;;
85291;SDS011;76128;47.194;14.662;2024-02-26T03:00:26;3.35;;;2.00;;
85291;SDS011;76128;47.194;14.662;2024-02-26T03:02:52;5.43;;;2.15;;
85291;SDS011;76128;47.194;14.662;2024-02-26T03:05:18;4.63;;;2.15;;
85291;SDS011;76128;47.194;14.662;2024-02-26T03:07:43;5.35;;;2.30;;
85291;SDS011;76128;47.194;14.662;2024-02-26T03:10:09;4.35;;;2.28;;
85291;SDS011;76128;47.194;14.662;2024-02-26T03:12:34;6.85;;;2.20;;
85291;SDS011;76128;47.194;14.662;2024-02-26T03:15:00;3.92;;;2.05;;
85291;SDS011;76128;47.194;14.662;2024-02-26T03:17:29;4.03;;;2.15;;
85291;SDS011;76128;47.194;14.662;2024-02-26T03:19:55;4.55;;;2.17;;
85291;SDS011;76128;47.194;14.662;2024-02-26T03:22:20;4.63;;;2.17;;
85291;SDS011;76128;47.194;14.662;2024-02-26T03:24:46;5.47;;;2.42;;
85291;SDS011;76128;47.194;14.662;2024-02-26T03:27:12;4.40;;;2.20;;
85291;SDS011;76128;47.194;14.662;2024-02-26T03:29:38;3.78;;;2.03;;
85291;SDS011;76128;47.194;14.662;2024-02-26T03:32:04;3.35;;;2.00;;
85291;SDS011;76128;47.194;14.662;2024-02-26T03:34:31;5.65;;;2.42;;
85291;SDS011;76128;47.194;14.662;2024-02-26T03:36:56;5.65;;;2.42;;
85291;SDS011;76128;47.194;14.662;2024-02-26T03:39:22;4.45;;;2.20;;
85291;SDS011;76128;47.194;14.662;2024-02-26T03:41:48;6.70;;;2.55;;
85291;SDS011;76128;47.194;14.662;2024-02-26T03:44:13;5.78;;;2.80;;
85291;SDS011;76128;47.194;14.662;2024-02-26T03:46:40;5.25;;;2.22;;
85291;SDS011;76128;47.194;14.662;2024-02-26T03:49:07;5.07;;;2.20;;
85291;SDS011;76128;47.194;14.662;2024-02-26T03:51:33;5.15;;;2.47;;
85291;SDS011;76128;47.194;14.662;2024-02-26T03:53:59;3.80;;;2.17;;
85291;SDS011;76128;47.194;14.662;2024-02-26T03:56:25;5.90;;;2.38;;
85291;SDS011;76128;47.194;14.662;2024-02-26T03:58:50;3.65;;;2.10;;
85291;SDS011;76128;47.194;14.662;2024-02-26T04:01:16;4.68;;;2.25;;
85291;SDS011;76128;47.194;14.662;2024-02-26T04:03:41;6.93;;;2.25;;
85291;SDS011;76128;47.194;14.662;2024-02-26T04:06:10;4.57;;;2.22;;
85291;SDS011;76128;47.194;14.662;2024-02-26T04:08:36;6.05;;;2.33;;
85291;SDS011;76128;47.194;14.662;2024-02-26T04:11:03;4.30;;;2.22;;
85291;SDS011;76128;47.194;14.662;2024-02-26T04:13:32;5.70;;;2.33;;
85291;SDS011;76128;47.194;14.662;2024-02-26T04:15:59;4.97;;;2.30;;
85291;SDS011;76128;47.194;14.662;2024-02-26T04:18:26;4.15;;;1.83;;
85291;SDS011;76128;47.194;14.662;2024-02-26T04:20:52;4.22;;;2.00;;
85291;SDS011;76128;47.194;14.662;2024-02-26T04:23:17;5.38;;;2.72;;
85291;SDS011;76128;47.194;14.662;2024-02-26T04:25:43;5.82;;;2.50;;
85291;SDS011;76128;47.194;14.662;2024-02-26T04:28:08;4.57;;;2.45;;
85291;SDS011;76128;47.194;14.662;2024-02-26T04:30:34;4.45;;;2.30;;
85291;SDS011;76128;47.194;14.662;2024-02-26T04:32:59;5.50;;;2.72;;
85291;SDS011;76128;47.194;14.662;2024-02-26T04:35:25;5.40;;;2.63;;
85291;SDS011;76128;47.194;14.662;2024-02-26T04:37:50;6.45;;;2.22;;
85291;SDS011;76128;47.194;14.662;2024-02-26T04:40:15;5.00;;;2.20;;
85291;SDS011;76128;47.194;14.662;2024-02-26T04:42:41;6.97;;;2.15;;
85291;SDS011;76128;47.194;14.662;2024-02-26T04:45:06;5.47;;;2.15;;
85291;SDS011;76128;47.194;14.662;2024-02-26T04:47:33;5.10;;;2.33;;
85291;SDS011;76128;47.194;14.662;2024-02-26T04:49:59;6.78;;;2.55;;
85291;SDS011;76128;47.194;14.662;2024-02-26T04:52:25;4.65;;;2.60;;
85291;SDS011;76128;47.194;14.662;2024-02-26T04:54:50;5.20;;;2.55;;
85291;SDS011;76128;47.194;14.662;2024-02-26T04:57:16;7.93;;;2.95;;
85291;SDS011;76128;47.194;14.662;2024-02-26T04:59:43;7.40;;;3.20;;
85291;SDS011;76128;47.194;14.662;2024-02-26T05:02:11;5.10;;;2.85;;
85291;SDS011;76128;47.194;14.662;2024-02-26T05:04:37;5.28;;;2.85;;
85291;SDS011;76128;47.194;14.662;2024-02-26T05:07:02;6.53;;;2.80;;
85291;SDS011;76128;47.194;14.662;2024-02-26T05:09:28;6.25;;;3.35;;
85291;SDS011;76128;47.194;14.662;2024-02-26T05:11:54;6.43;;;3.15;;
85291;SDS011;76128;47.194;14.662;2024-02-26T05:14:19;6.53;;;3.10;;
85291;SDS011;76128;47.194;14.662;2024-02-26T05:16:45;5.30;;;2.90;;
85291;SDS011;76128;47.194;14.662;2024-02-26T05:19:11;5.25;;;2.92;;
85291;SDS011;76128;47.194;14.662;2024-02-26T05:21:36;10.13;;;3.40;;
85291;SDS011;76128;47.194;14.662;2024-02-26T05:24:02;6.50;;;3.03;;
85291;SDS011;76128;47.194;14.662;2024-02-26T05:26:27;6.68;;;2.97;;
85291;SDS011;76128;47.194;14.662;2024-02-26T05:28:53;5.15;;;3.10;;
85291;SDS011;76128;47.194;14.662;2024-02-26T05:31:18;6.30;;;3.10;;
85291;SDS011;76128;47.194;14.662;2024-02-26T05:33:44;5.32;;;2.65;;
85291;SDS011;76128;47.194;14.662;2024-02-26T05:36:09;7.55;;;2.92;;
85291;SDS011;76128;47.194;14.662;2024-02-26T05:38:35;6.60;;;3.08;;
85291;SDS011;76128;47.194;14.662;2024-02-26T05:41:00;5.57;;;2.60;;
85291;SDS011;76128;47.194;14.662;2024-02-26T05:43:26;7.43;;;2.60;;
85291;SDS011;76128;47.194;14.662;2024-02-26T05:45:52;5.70;;;3.08;;
85291;SDS011;76128;47.194;14.662;2024-02-26T05:48:17;4.80;;;2.67;;
85291;SDS011;76128;47.194;14.662;2024-02-26T05:50:44;4.57;;;2.92;;
85291;SDS011;76128;47.194;14.662;2024-02-26T05:53:10;5.68;;;3.22;;
85291;SDS011;76128;47.194;14.662;2024-02-26T05:55:36;6.55;;;2.90;;
85291;SDS011;76128;47.194;14.662;2024-02-26T05:58:01;5.25;;;2.83;;
85291;SDS011;76128;47.194;14.662;2024-02-26T06:00:26;6.43;;;2.70;;
85291;SDS011;76128;47.194;14.662;2024-02-26T06:02:52;5.00;;;2.60;;
85291;SDS011;76128;47.194;14.662;2024-02-26T06:05:18;4.95;;;2.80;;
85291;SDS011;76128;47.194;14.662;2024-02-26T06:07:43;5.97;;;3.00;;
85291;SDS011;76128;47.194;14.662;2024-02-26T06:10:09;4.60;;;2.30;;
85291;SDS011;76128;47.194;14.662;2024-02-26T06:12:35;4.85;;;2.70;;
85291;SDS011;76128;47.194;14.662;2024-02-26T06:15:01;4.80;;;2.50;;
85291;SDS011;76128;47.194;14.662;2024-02-26T06:17:26;6.30;;;2.70;;
85291;SDS011;76128;47.194;14.662;2024-02-26T06:19:52;6.55;;;2.90;;
85291;SDS011;76128;47.194;14.662;2024-02-26T06:22:18;6.72;;;3.00;;
85291;SDS011;76128;47.194;14.662;2024-02-26T06:24:43;5.80;;;2.97;;
85291;SDS011;76128;47.194;14.662;2024-02-26T06:27:09;5.82;;;2.63;;
85291;SDS011;76128;47.194;14.662;2024-02-26T06:29:34;5.70;;;2.60;;
85291;SDS011;76128;47.194;14.662;2024-02-26T06:32:00;7.72;;;3.38;;
85291;SDS011;76128;47.194;14.662;2024-02-26T06:34:25;7.22;;;3.35;;
85291;SDS011;76128;47.194;14.662;2024-02-26T06:36:51;17.20;;;6.60;;
85291;SDS011;76128;47.194;14.662;2024-02-26T06:39:16;17.52;;;7.05;;
85291;SDS011;76128;47.194;14.662;2024-02-26T06:41:43;15.00;;;6.00;;
85291;SDS011;76128;47.194;14.662;2024-02-26T06:44:08;28.45;;;9.82;;
85291;SDS011;76128;47.194;14.662;2024-02-26T06:46:34;14.25;;;5.55;;
85291;SDS011;76128;47.194;14.662;2024-02-26T06:49:00;11.50;;;3.97;;
85291;SDS011;76128;47.194;14.662;2024-02-26T06:51:25;7.50;;;3.78;;
85291;SDS011;76128;47.194;14.662;2024-02-26T06:53:50;7.50;;;4.18;;
85291;SDS011;76128;47.194;14.662;2024-02-26T06:56:16;8.45;;;3.72;;
85291;SDS011;76128;47.194;14.662;2024-02-26T06:58:41;11.23;;;5.10;;
85291;SDS011;76128;47.194;14.662;2024-02-26T07:01:07;19.90;;;7.55;;
85291;SDS011;76128;47.194;14.662;2024-02-26T07:03:33;23.30;;;8.70;;
85291;SDS011;76128;47.194;14.662;2024-02-26T07:05:59;15.38;;;6.80;;
85291;SDS011;76128;47.194;14.662;2024-02-26T07:08:24;12.55;;;5.25;;
85291;SDS011;76128;47.194;14.662;2024-02-26T07:10:50;25.45;;;8.27;;
85291;SDS011;76128;47.194;14.662;2024-02-26T07:13:15;22.25;;;8.18;;
85291;SDS011;76128;47.194;14.662;2024-02-26T07:15:41;13.60;;;5.88;;
85291;SDS011;76128;47.194;14.662;2024-02-26T07:18:06;10.45;;;4.82;;
85291;SDS011;76128;47.194;14.662;2024-02-26T07:20:32;8.82;;;4.18;;
85291;SDS011;76128;47.194;14.662;2024-02-26T07:22:58;7.88;;;4.07;;
85291;SDS011;76128;47.194;14.662;2024-02-26T07:25:23;12.85;;;4.03;;
85291;SDS011;76128;47.194;14.662;2024-02-26T07:27:52;10.57;;;3.88;;
85291;SDS011;76128;47.194;14.662;2024-02-26T07:30:17;6.88;;;3.97;;
85291;SDS011;76128;47.194;14.662;2024-02-26T07:32:43;7.00;;;3.67;;
85291;SDS011;76128;47.194;14.662;2024-02-26T07:35:09;6.00;;;2.83;;
85291;SDS011;76128;47.194;14.662;2024-02-26T07:37:35;8.35;;;2.97;;
85291;SDS011;76128;47.194;14.662;2024-02-26T07:40:00;5.20;;;3.10;;
85291;SDS011;76128;47.194;14.662;2024-02-26T07:42:26;4.95;;;2.40;;
85291;SDS011;76128;47.194;14.662;2024-02-26T07:44:52;4.20;;;2.28;;
85291;SDS011;76128;47.194;14.662;2024-02-26T07:47:18;6.07;;;2.90;;
85291;SDS011;76128;47.194;14.662;2024-02-26T07:49:44;7.15;;;3.00;;
85291;SDS011;76128;47.194;14.662;2024-02-26T07:52:09;5.40;;;2.70;;
85291;SDS011;76128;47.194;14.662;2024-02-26T07:54:35;5.75;;;2.90;;
85291;SDS011;76128;47.194;14.662;2024-02-26T07:57:00;6.03;;;2.90;;
85291;SDS011;76128;47.194;14.662;2024-02-26T07:59:27;5.75;;;3.10;;
85291;SDS011;76128;47.194;14.662;2024-02-26T08:01:52;6.30;;;2.97;;
85291;SDS011;76128;47.194;14.662;2024-02-26T08:04:18;6.25;;;3.00;;
85291;SDS011;76128;47.194;14.662;2024-02-26T08:06:43;7.72;;;3.65;;
85291;SDS011;76128;47.194;14.662;2024-02-26T08:09:09;5.60;;;2.92;;
85291;SDS011;76128;47.194;14.662;2024-02-26T08:11:34;6.32;;;3.30;;
85291;SDS011;76128;47.194;14.662;2024-02-26T08:14:00;4.95;;;2.42;;
85291;SDS011;76128;47.194;14.662;2024-02-26T08:16:26;5.22;;;2.83;;
85291;SDS011;76128;47.194;14.662;2024-02-26T08:18:51;6.68;;;3.05;;
85291;SDS011;76128;47.194;14.662;2024-02-26T08:21:17;6.50;;;3.00;;
85291;SDS011;76128;47.194;14.662;2024-02-26T08:23:45;5.78;;;2.70;;
85291;SDS011;76128;47.194;14.662;2024-02-26T08:26:11;9.25;;;3.08;;
85291;SDS011;76128;47.194;14.662;2024-02-26T08:28:37;6.45;;;3.00;;
85291;SDS011;76128;47.194;14.662;2024-02-26T08:31:03;4.68;;;2.80;;
85291;SDS011;76128;47.194;14.662;2024-02-26T08:33:28;5.70;;;2.70;;
85291;SDS011;76128;47.194;14.662;2024-02-26T08:35:54;4.47;;;2.42;;
85291;SDS011;76128;47.194;14.662;2024-02-26T08:38:19;4.53;;;2.70;;
85291;SDS011;76128;47.194;14.662;2024-02-26T08:40:45;6.40;;;2.95;;
85291;SDS011;76128;47.194;14.662;2024-02-26T08:43:10;4.38;;;2.50;;
85291;SDS011;76128;47.194;14.662;2024-02-26T08:45:36;4.85;;;2.55;;
85291;SDS011;76128;47.194;14.662;2024-02-26T08:48:02;5.35;;;3.00;;
85291;SDS011;76128;47.194;14.662;2024-02-26T08:50:28;5.45;;;3.08;;
85291;SDS011;76128;47.194;14.662;2024-02-26T08:52:53;6.85;;;3.47;;
85291;SDS011;76128;47.194;14.662;2024-02-26T08:55:19;8.80;;;3.72;;
85291;SDS011;76128;47.194;14.662;2024-02-26T08:57:44;8.20;;;3.58;;
85291;SDS011;76128;47.194;14.662;2024-02-26T09:00:10;5.60;;;2.63;;
85291;SDS011;76128;47.194;14.662;2024-02-26T09:02:36;5.22;;;2.30;;
85291;SDS011;76128;47.194;14.662;2024-02-26T09:05:04;7.07;;;3.08;;
85291;SDS011;76128;47.194;14.662;2024-02-26T09:07:30;6.82;;;3.30;;
85291;SDS011;76128;47.194;14.662;2024-02-26T09:09:56;3.47;;;2.10;;
85291;SDS011;76128;47.194;14.662;2024-02-26T09:12:22;2.80;;;1.65;;
85291;SDS011;76128;47.194;14.662;2024-02-26T09:14:47;2.92;;;1.70;;
85291;SDS011;76128;47.194;14.662;2024-02-26T09:17:13;3.40;;;1.55;;
85291;SDS011;76128;47.194;14.662;2024-02-26T09:19:38;3.28;;;1.70;;
85291;SDS011;76128;47.194;14.662;2024-02-26T09:22:04;5.30;;;1.88;;
85291;SDS011;76128;47.194;14.662;2024-02-26T09:24:29;3.00;;;1.63;;
85291;SDS011;76128;47.194;14.662;2024-02-26T09:26:55;3.47;;;1.65;;
85291;SDS011;76128;47.194;14.662;2024-02-26T09:29:20;3.75;;;2.00;;
85291;SDS011;76128;47.194;14.662;2024-02-26T09:31:46;4.05;;;1.95;;
85291;SDS011;76128;47.194;14.662;2024-02-26T09:34:14;3.40;;;1.95;;
85291;SDS011;76128;47.194;14.662;2024-02-26T09:36:40;5.78;;;2.30;;
85291;SDS011;76128;47.194;14.662;2024-02-26T09:39:05;3.05;;;1.73;;
85291;SDS011;76128;47.194;14.662;2024-02-26T09:41:32;2.65;;;1.55;;
85291;SDS011;76128;47.194;14.662;2024-02-26T09:43:58;4.68;;;1.95;;
85291;SDS011;76128;47.194;14.662;2024-02-26T09:46:27;2.90;;;1.80;;
85291;SDS011;76128;47.194;14.662;2024-02-26T09:48:53;3.33;;;1.80;;
85291;SDS011;76128;47.194;14.662;2024-02-26T09:51:19;4.18;;;1.65;;
85291;SDS011;76128;47.194;14.662;2024-02-26T09:53:45;4.47;;;1.70;;
85291;SDS011;76128;47.194;14.662;2024-02-26T09:56:12;3.78;;;1.70;;
85291;SDS011;76128;47.194;14.662;2024-02-26T09:58:38;2.95;;;1.60;;
85291;SDS011;76128;47.194;14.662;2024-02-26T10:01:05;2.63;;;1.50;;
85291;SDS011;76128;47.194;14.662;2024-02-26T10:03:38;5.30;;;1.80;;
85291;SDS011;76128;47.194;14.662;2024-02-26T10:06:06;2.78;;;1.50;;
85291;SDS011;76128;47.194;14.662;2024-02-26T10:08:32;2.58;;;1.58;;
85291;SDS011;76128;47.194;14.662;2024-02-26T10:10:58;3.08;;;2.00;;
85291;SDS011;76128;47.194;14.662;2024-02-26T10:13:24;2.83;;;1.70;;
85291;SDS011;76128;47.194;14.662;2024-02-26T10:15:49;3.00;;;1.40;;
85291;SDS011;76128;47.194;14.662;2024-02-26T10:18:14;3.97;;;1.90;;
85291;SDS011;76128;47.194;14.662;2024-02-26T10:20:40;3.47;;;1.77;;
85291;SDS011;76128;47.194;14.662;2024-02-26T10:23:05;3.42;;;1.63;;
85291;SDS011;76128;47.194;14.662;2024-02-26T10:25:31;4.30;;;1.73;;
85291;SDS011;76128;47.194;14.662;2024-02-26T10:27:59;2.88;;;1.77;;
85291;SDS011;76128;47.194;14.662;2024-02-26T10:30:27;3.78;;;2.15;;
85291;SDS011;76128;47.194;14.662;2024-02-26T10:32:53;3.47;;;1.88;;
85291;SDS011;76128;47.194;14.662;2024-02-26T10:35:19;3.20;;;1.75;;
85291;SDS011;76128;47.194;14.662;2024-02-26T10:37:48;3.22;;;1.70;;
85291;SDS011;76128;47.194;14.662;2024-02-26T10:40:14;3.30;;;1.73;;
85291;SDS011;76128;47.194;14.662;2024-02-26T10:42:41;3.00;;;1.55;;
85291;SDS011;76128;47.194;14.662;2024-02-26T10:45:07;3.15;;;1.80;;
85291;SDS011;76128;47.194;14.662;2024-02-26T10:47:34;3.97;;;1.70;;
85291;SDS011;76128;47.194;14.662;2024-02-26T10:50:04;3.53;;;1.70;;
85291;SDS011;76128;47.194;14.662;2024-02-26T10:52:34;4.25;;;1.85;;
85291;SDS011;76128;47.194;14.662;2024-02-26T10:55:01;5.43;;;1.80;;
85291;SDS011;76128;47.194;14.662;2024-02-26T10:57:29;2.65;;;1.60;;
85291;SDS011;76128;47.194;14.662;2024-02-26T11:02:23;3.03;;;1.67;;
85291;SDS011;76128;47.194;14.662;2024-02-26T11:04:49;3.80;;;1.73;;
85291;SDS011;76128;47.194;14.662;2024-02-26T11:07:15;3.78;;;1.60;;
85291;SDS011;76128;47.194;14.662;2024-02-26T11:09:41;3.33;;;1.70;;
85291;SDS011;76128;47.194;14.662;2024-02-26T11:12:10;2.55;;;1.38;;
85291;SDS011;76128;47.194;14.662;2024-02-26T11:14:38;2.67;;;1.52;;
85291;SDS011;76128;47.194;14.662;2024-02-26T11:17:05;3.53;;;1.67;;
85291;SDS011;76128;47.194;14.662;2024-02-26T11:19:31;2.83;;;1.73;;
85291;SDS011;76128;47.194;14.662;2024-02-26T11:22:00;2.20;;;1.42;;
85291;SDS011;76128;47.194;14.662;2024-02-26T11:24:26;4.55;;;1.90;;
85291;SDS011;76128;47.194;14.662;2024-02-26T11:26:53;3.97;;;1.67;;
85291;SDS011;76128;47.194;14.662;2024-02-26T11:29:32;3.00;;;1.48;;
85291;SDS011;76128;47.194;14.662;2024-02-26T11:32:09;2.33;;;1.38;;
85291;SDS011;76128;47.194;14.662;2024-02-26T11:34:34;2.50;;;1.30;;
85291;SDS011;76128;47.194;14.662;2024-02-26T11:37:15;2.33;;;1.33;;
85291;SDS011;76128;47.194;14.662;2024-02-26T11:39:42;3.30;;;1.50;;
85291;SDS011;76128;47.194;14.662;2024-02-26T11:42:08;3.03;;;1.67;;
85291;SDS011;76128;47.194;14.662;2024-02-26T11:44:34;2.40;;;1.70;;
85291;SDS011;76128;47.194;14.662;2024-02-26T11:47:10;2.55;;;1.45;;
85291;SDS011;76128;47.194;14.662;2024-02-26T11:49:37;2.95;;;1.70;;
85291;SDS011;76128;47.194;14.662;2024-02-26T11:52:04;3.42;;;1.50;;
85291;SDS011;76128;47.194;14.662;2024-02-26T11:57:04;2.60;;;1.52;;
85291;SDS011;76128;47.194;14.662;2024-02-26T11:59:39;2.75;;;1.42;;
85291;SDS011;76128;47.194;14.662;2024-02-26T12:02:06;2.50;;;1.50;;
85291;SDS011;76128;47.194;14.662;2024-02-26T12:04:33;4.00;;;1.60;;
85291;SDS011;76128;47.194;14.662;2024-02-26T12:07:01;6.03;;;1.80;;
85291;SDS011;76128;47.194;14.662;2024-02-26T12:09:34;3.60;;;2.05;;
85291;SDS011;76128;47.194;14.662;2024-02-26T12:14:55;3.40;;;1.55;;
85291;SDS011;76128;47.194;14.662;2024-02-26T12:17:22;3.15;;;1.70;;
85291;SDS011;76128;47.194;14.662;2024-02-26T12:19:49;3.50;;;1.88;;
85291;SDS011;76128;47.194;14.662;2024-02-26T12:22:15;4.32;;;1.73;;
85291;SDS011;76128;47.194;14.662;2024-02-26T12:24:41;4.03;;;1.70;;
85291;SDS011;76128;47.194;14.662;2024-02-26T12:27:07;3.33;;;1.73;;
85291;SDS011;76128;47.194;14.662;2024-02-26T12:29:33;3.78;;;1.80;;
85291;SDS011;76128;47.194;14.662;2024-02-26T12:31:58;3.15;;;1.83;;
85291;SDS011;76128;47.194;14.662;2024-02-26T12:34:24;3.72;;;1.83;;
85291;SDS011;76128;47.194;14.662;2024-02-26T12:36:50;3.55;;;1.60;;
85291;SDS011;76128;47.194;14.662;2024-02-26T12:39:15;2.88;;;1.40;;
85291;SDS011;76128;47.194;14.662;2024-02-26T12:41:41;3.28;;;1.70;;
85291;SDS011;76128;47.194;14.662;2024-02-26T12:44:11;2.90;;;1.70;;
85291;SDS011;76128;47.194;14.662;2024-02-26T12:46:37;3.28;;;1.60;;
85291;SDS011;76128;47.194;14.662;2024-02-26T12:49:02;3.88;;;2.63;;
85291;SDS011;76128;47.194;14.662;2024-02-26T12:51:28;3.08;;;1.80;;
85291;SDS011;76128;47.194;14.662;2024-02-26T12:53:54;2.70;;;1.60;;
85291;SDS011;76128;47.194;14.662;2024-02-26T12:56:20;2.53;;;1.30;;
85291;SDS011;76128;47.194;14.662;2024-02-26T12:58:46;3.05;;;1.40;;
85291;SDS011;76128;47.194;14.662;2024-02-26T13:01:14;3.05;;;1.88;;
85291;SDS011;76128;47.194;14.662;2024-02-26T13:03:40;2.10;;;1.30;;
85291;SDS011;76128;47.194;14.662;2024-02-26T13:06:06;4.03;;;1.58;;
85291;SDS011;76128;47.194;14.662;2024-02-26T13:08:32;2.33;;;1.52;;
85291;SDS011;76128;47.194;14.662;2024-02-26T13:11:01;2.53;;;1.40;;
85291;SDS011;76128;47.194;14.662;2024-02-26T13:13:26;3.10;;;1.67;;
85291;SDS011;76128;47.194;14.662;2024-02-26T13:16:05;3.65;;;2.05;;
85291;SDS011;76128;47.194;14.662;2024-02-26T13:18:33;2.50;;;1.40;;
85291;SDS011;76128;47.194;14.662;2024-02-26T13:21:08;5.05;;;1.60;;
85291;SDS011;76128;47.194;14.662;2024-02-26T13:23:41;2.90;;;1.50;;
85291;SDS011;76128;47.194;14.662;2024-02-26T13:26:07;2.55;;;1.40;;
85291;SDS011;76128;47.194;14.662;2024-02-26T13:28:33;3.17;;;1.50;;
85291;SDS011;76128;47.194;14.662;2024-02-26T13:30:59;2.50;;;1.50;;
85291;SDS011;76128;47.194;14.662;2024-02-26T13:33:26;3.75;;;1.77;;
85291;SDS011;76128;47.194;14.662;2024-02-26T13:35:54;4.35;;;2.00;;
85291;SDS011;76128;47.194;14.662;2024-02-26T13:38:20;3.78;;;1.50;;
85291;SDS011;76128;47.194;14.662;2024-02-26T13:40:45;3.20;;;1.52;;
85291;SDS011;76128;47.194;14.662;2024-02-26T13:43:11;3.45;;;1.50;;
85291;SDS011;76128;47.194;14.662;2024-02-26T13:45:37;2.90;;;1.58;;
85291;SDS011;76128;47.194;14.662;2024-02-26T13:48:07;2.40;;;1.48;;
85291;SDS011;76128;47.194;14.662;2024-02-26T13:50:35;2.70;;;1.73;;
85291;SDS011;76128;47.194;14.662;2024-02-26T13:53:01;3.28;;;1.92;;
85291;SDS011;76128;47.194;14.662;2024-02-26T13:55:26;2.78;;;1.70;;
85291;SDS011;76128;47.194;14.662;2024-02-26T13:57:55;2.85;;;1.52;;
85291;SDS011;76128;47.194;14.662;2024-02-26T14:00:22;3.47;;;1.60;;
85291;SDS011;76128;47.194;14.662;2024-02-26T14:02:48;3.38;;;1.55;;
85291;SDS011;76128;47.194;14.662;2024-02-26T14:05:13;3.08;;;1.65;;
85291;SDS011;76128;47.194;14.662;2024-02-26T14:07:39;2.92;;;1.60;;
85291;SDS011;76128;47.194;14.662;2024-02-26T14:10:05;3.00;;;1.60;;
85291;SDS011;76128;47.194;14.662;2024-02-26T14:12:31;2.70;;;1.60;;
85291;SDS011;76128;47.194;14.662;2024-02-26T14:14:56;2.45;;;1.52;;
85291;SDS011;76128;47.194;14.662;2024-02-26T14:17:24;3.47;;;1.65;;
85291;SDS011;76128;47.194;14.662;2024-02-26T14:19:49;2.70;;;1.60;;
85291;SDS011;76128;47.194;14.662;2024-02-26T14:22:15;3.22;;;1.60;;
85291;SDS011;76128;47.194;14.662;2024-02-26T14:24:45;4.75;;;1.67;;
85291;SDS011;76128;47.194;14.662;2024-02-26T14:27:11;3.28;;;1.60;;
85291;SDS011;76128;47.194;14.662;2024-02-26T14:32:10;4.78;;;1.67;;
85291;SDS011;76128;47.194;14.662;2024-02-26T14:34:35;4.07;;;1.58;;
85291;SDS011;76128;47.194;14.662;2024-02-26T14:37:01;2.55;;;1.63;;